Time;durP1;ratioP1;P1;durP2;ratioP2;P2;SDS_P1;SDS_P2;PMS_P1;PMS_P2;Temp;Humidity;BMP_temperature;BMP_pressure;BME280_temperature;BME280_humidity;BME280_pressure;Samples;Min_cycle;Max_cycle;Signal;HPM_P1;HPM_P2
2022/07/13 00:01:13;;;;;;;30.00;2.53;;;;;;;24.38;49.68;100018.38;7311066;19;131481;-38
2022/07/13 00:03:38;;;;;;;26.67;2.38;;;;;;;24.40;48.74;100020.88;7310290;19;130348;-39
2022/07/13 00:06:04;;;;;;;38.92;3.83;;;;;;;24.37;50.42;100022.00;7310635;19;130722;-39
2022/07/13 00:08:29;;;;;;;25.67;2.27;;;;;;;24.38;49.68;100012.28;7312748;19;128986;-38
2022/07/13 00:10:55;;;;;;;51.50;4.10;;;;;;;24.37;49.61;100011.47;7311245;19;130701;-39
2022/07/13 00:13:20;;;;;;;26.30;2.28;;;;;;;24.38;50.51;100007.88;7311861;19;130078;-39
2022/07/13 00:15:45;;;;;;;47.42;3.80;;;;;;;24.36;49.54;100001.94;7312158;19;131557;-38
2022/07/13 00:18:11;;;;;;;41.50;3.25;;;;;;;24.39;50.17;100014.78;7311814;19;129130;-39
2022/07/13 00:20:36;;;;;;;37.67;3.27;;;;;;;24.38;50.58;100009.66;7310499;19;130340;-40
2022/07/13 00:23:02;;;;;;;24.48;2.28;;;;;;;24.38;49.64;100007.03;7309442;19;129219;-38
2022/07/13 00:25:27;;;;;;;30.10;2.72;;;;;;;24.30;50.18;99983.28;7310629;19;128967;-40
2022/07/13 00:27:52;;;;;;;45.30;3.53;;;;;;;24.38;50.15;100000.00;7313116;19;129517;-39
2022/07/13 00:30:18;;;;;;;25.03;2.30;;;;;;;24.35;49.77;100005.53;7310910;19;130057;-38
2022/07/13 00:32:43;;;;;;;31.13;2.72;;;;;;;24.37;50.43;100006.22;7309025;19;131490;-39
2022/07/13 00:35:09;;;;;;;25.23;2.25;;;;;;;24.33;49.31;99999.59;7312066;19;130506;-39
2022/07/13 00:37:34;;;;;;;30.48;2.67;;;;;;;24.38;50.34;100001.78;7310925;19;129495;-37
2022/07/13 00:39:59;;;;;;;36.33;3.63;;;;;;;24.38;49.79;100009.66;7311854;19;131077;-40
2022/07/13 00:42:25;;;;;;;27.10;2.53;;;;;;;24.37;50.24;100008.84;7308644;19;129278;-40
2022/07/13 00:44:50;;;;;;;47.47;3.60;;;;;;;24.39;50.65;100004.25;7311057;19;129138;-39
2022/07/13 00:47:15;;;;;;;19.08;1.67;;;;;;;24.38;50.64;100002.63;7312230;19;129583;-40
2022/07/13 00:49:41;;;;;;;33.40;2.97;;;;;;;24.38;50.29;100002.63;7306565;19;130303;-39
2022/07/13 00:52:07;;;;;;;57.08;4.90;;;;;;;24.39;50.17;99998.19;7307615;19;129357;-38
2022/07/13 00:54:34;;;;;;;27.33;2.55;;;;;;;24.36;49.60;99988.78;7310879;19;129225;-41
2022/07/13 00:57:01;;;;;;;47.10;3.83;;;;;;;24.37;49.72;99989.63;7310636;19;129358;-40
2022/07/13 00:59:26;;;;;;;36.85;3.13;;;;;;;24.39;50.03;99995.56;7310802;19;129230;-38
2022/07/13 01:01:55;;;;;;;44.47;3.33;;;;;;;24.38;50.81;100000.00;7309445;19;130311;-41
2022/07/13 01:04:23;;;;;;;28.25;2.92;;;;;;;24.35;50.30;100002.91;7310281;19;129327;-40
2022/07/13 01:06:51;;;;;;;45.35;3.70;;;;;;;24.28;49.82;99977.34;7309865;19;130989;-38
2022/07/13 01:09:17;;;;;;;22.08;2.00;;;;;;;24.36;49.65;99985.34;7315897;19;129115;-40
2022/07/13 01:11:42;;;;;;;34.13;3.20;;;;;;;24.29;49.78;99979.88;7316061;19;129585;-39
2022/07/13 01:14:09;;;;;;;13.75;1.48;;;;;;;24.36;49.89;99988.78;7317334;19;129243;-38
2022/07/13 01:16:35;;;;;;;25.67;2.38;;;;;;;24.38;49.36;99992.09;7318398;19;129479;-39
2022/07/13 01:19:04;;;;;;;33.25;3.10;;;;;;;24.34;50.01;99985.50;7317706;19;129098;-40
2022/07/13 01:21:29;;;;;;;26.55;2.55;;;;;;;24.32;49.73;99987.44;7315123;19;129269;-40
2022/07/13 01:23:55;;;;;;;43.95;3.50;;;;;;;24.28;49.79;99980.81;7318388;19;129363;-40
2022/07/13 01:26:20;;;;;;;27.83;2.35;;;;;;;24.35;50.78;99987.16;7314631;19;130589;-37
2022/07/13 01:28:45;;;;;;;33.87;2.63;;;;;;;24.38;49.53;99988.63;7317933;19;130549;-40
2022/07/13 01:31:11;;;;;;;29.03;2.33;;;;;;;24.37;49.95;99984.38;7316887;19;129542;-40
2022/07/13 01:33:37;;;;;;;25.75;2.58;;;;;;;24.38;49.71;99986.84;7316109;19;129446;-38
2022/07/13 01:36:02;;;;;;;39.73;3.37;;;;;;;24.29;50.08;99968.53;7316936;19;128999;-38
2022/07/13 01:38:28;;;;;;;28.90;2.90;;;;;;;24.39;49.87;99985.06;7317373;19;130531;-41
2022/07/13 01:40:54;;;;;;;45.43;3.53;;;;;;;24.36;50.06;99993.25;7316195;19;130981;-40
2022/07/13 01:43:26;;;;;;;31.33;2.30;;;;;;;24.35;51.54;99986.31;7314895;19;129215;-37
2022/07/13 01:45:51;;;;;;;33.70;2.88;;;;;;;24.34;49.83;99985.50;7316126;19;129105;-39
2022/07/13 01:48:17;;;;;;;30.92;2.92;;;;;;;24.38;49.29;99992.09;7315626;19;129125;-40
2022/07/13 01:50:42;;;;;;;25.90;2.50;;;;;;;24.34;49.24;99980.25;7316233;19;130862;-40
2022/07/13 01:53:07;;;;;;;26.43;2.47;;;;;;;24.36;49.51;99991.41;7313220;19;128845;-39
2022/07/13 01:55:33;;;;;;;38.57;3.17;;;;;;;24.38;50.29;99991.25;7317741;19;131443;-41
2022/07/13 01:57:59;;;;;;;19.45;1.88;;;;;;;24.29;50.34;99971.97;7317419;19;129936;-39
2022/07/13 02:00:25;;;;;;;28.65;2.65;;;;;;;24.30;50.32;99960.47;7314859;19;130551;-39
2022/07/13 02:02:51;;;;;;;37.33;3.27;;;;;;;24.37;50.24;99972.06;7313234;19;129126;-40
2022/07/13 02:05:17;;;;;;;18.35;1.73;;;;;;;24.29;50.63;99945.72;7316484;19;129375;-40
2022/07/13 02:07:42;;;;;;;39.95;3.40;;;;;;;24.37;49.88;99953.66;7315525;19;131280;-41
2022/07/13 02:10:10;;;;;;;36.03;3.42;;;;;;;24.38;50.32;99952.69;7314924;19;131164;-39
2022/07/13 02:12:35;;;;;;;12.32;1.70;;;;;;;24.29;49.41;99935.19;7313568;19;129065;-39
2022/07/13 02:15:01;;;;;;;25.05;2.22;;;;;;;24.36;50.79;99933.59;7315969;19;129477;-40
2022/07/13 02:17:26;;;;;;;31.95;2.88;;;;;;;24.38;50.13;99921.13;7315851;19;129529;-36
2022/07/13 02:19:51;;;;;;;38.37;3.40;;;;;;;24.36;50.40;99923.09;7314187;19;129174;-39
2022/07/13 02:22:17;;;;;;;21.10;2.00;;;;;;;24.37;49.76;99926.56;7314596;19;129131;-40
2022/07/13 02:24:43;;;;;;;9.97;1.57;;;;;;;24.36;49.93;99928.34;7315942;19;129133;-38
2022/07/13 02:27:08;;;;;;;22.65;2.10;;;;;;;24.36;49.53;99925.72;7315921;19;130136;-40
2022/07/13 02:29:33;;;;;;;21.13;2.38;;;;;;;24.33;49.64;99920.75;7315428;19;130474;-40
2022/07/13 02:31:59;;;;;;;44.65;4.53;;;;;;;24.37;49.93;99922.13;7313258;19;129016;-40
2022/07/13 02:34:27;;;;;;;25.40;2.38;;;;;;;24.34;50.02;99927.69;7316605;19;129184;-37
2022/07/13 02:36:53;;;;;;;27.15;2.60;;;;;;;24.34;49.83;99927.69;7315269;19;130016;-40
2022/07/13 02:39:19;;;;;;;17.50;1.90;;;;;;;24.31;49.95;99921.91;7316903;19;130479;-37
2022/07/13 02:41:44;;;;;;;31.97;2.63;;;;;;;24.34;50.26;99932.94;7313745;19;131341;-40
2022/07/13 02:44:10;;;;;;;24.92;2.63;;;;;;;24.38;49.92;99938.69;7315681;19;131287;-39
2022/07/13 02:46:35;;;;;;;38.60;3.45;;;;;;;24.38;50.23;99934.28;7312177;19;129922;-39
2022/07/13 02:49:00;;;;;;;34.08;3.30;;;;;;;24.30;49.81;99917.59;7314612;19;130133;-39
2022/07/13 02:51:26;;;;;;;27.73;2.83;;;;;;;24.38;50.16;99934.28;7315161;19;129249;-40
2022/07/13 02:53:51;;;;;;;20.83;2.10;;;;;;;24.38;49.69;99925.56;7314744;19;130009;-39
2022/07/13 02:56:16;;;;;;;23.40;2.20;;;;;;;24.37;49.87;99927.38;7315785;19;129488;-39
2022/07/13 02:58:42;;;;;;;36.77;3.53;;;;;;;24.38;50.34;99923.78;7315598;19;129769;-39
2022/07/13 03:01:07;;;;;;;30.67;3.13;;;;;;;24.38;49.78;99929.03;7313798;19;129074;-38
2022/07/13 03:03:33;;;;;;;28.30;2.75;;;;;;;24.36;49.60;99928.34;7314338;19;129615;-41
2022/07/13 03:05:58;;;;;;;37.10;3.35;;;;;;;24.37;49.32;99927.38;7313529;19;129424;-38
2022/07/13 03:08:24;;;;;;;28.23;2.70;;;;;;;24.37;50.30;99919.50;7316024;19;129138;-40
2022/07/13 03:10:49;;;;;;;45.00;3.88;;;;;;;24.36;49.75;99915.19;7312278;19;129064;-38
2022/07/13 03:13:14;;;;;;;31.33;3.03;;;;;;;24.37;49.40;99916.88;7314358;19;129076;-39
2022/07/13 03:15:40;;;;;;;39.67;3.90;;;;;;;24.35;49.40;99924.06;7313907;19;130199;-39
2022/07/13 03:18:07;;;;;;;17.92;2.22;;;;;;;24.35;49.73;99928.50;7314531;19;129056;-40
2022/07/13 03:20:34;;;;;;;19.35;2.45;;;;;;;24.25;50.27;99918.06;7313875;19;130628;-39
2022/07/13 03:22:59;;;;;;;25.85;2.67;;;;;;;24.32;49.06;99929.63;7308946;19;129579;-40
2022/07/13 03:25:25;;;;;;;33.90;3.17;;;;;;;24.33;49.14;99928.66;7312353;19;129055;-40
2022/07/13 03:27:50;;;;;;;46.43;4.10;;;;;;;24.33;49.64;99914.66;7312032;19;130260;-37
2022/07/13 03:30:16;;;;;;;30.15;3.47;;;;;;;24.34;49.80;99925.06;7312285;19;128878;-41
2022/07/13 03:32:41;;;;;;;22.37;2.40;;;;;;;24.32;49.51;99923.53;7308665;19;129015;-40
2022/07/13 03:35:07;;;;;;;27.48;2.90;;;;;;;24.34;49.80;99926.84;7314114;19;130276;-38
2022/07/13 03:37:32;;;;;;;26.30;2.85;;;;;;;24.35;50.10;99928.50;7313171;19;130475;-40
2022/07/13 03:39:58;;;;;;;49.70;4.63;;;;;;;24.32;50.42;99927.00;7313446;19;129091;-40
2022/07/13 03:42:23;;;;;;;28.23;2.90;;;;;;;24.31;49.36;99925.34;7311201;19;129436;-39
2022/07/13 03:44:48;;;;;;;66.43;6.25;;;;;;;24.33;49.99;99931.28;7312929;19;130435;-38
2022/07/13 03:47:14;;;;;;;24.90;2.50;;;;;;;24.34;49.79;99930.31;7313334;19;130247;-40
2022/07/13 03:49:39;;;;;;;17.60;2.28;;;;;;;24.35;49.73;99925.88;7312807;19;129522;-38
2022/07/13 03:52:05;;;;;;;45.03;4.10;;;;;;;24.33;49.47;99923.38;7310202;19;128949;-40
2022/07/13 03:54:31;;;;;;;33.57;3.50;;;;;;;24.35;49.56;99929.34;7312271;19;130153;-40
2022/07/13 03:56:57;;;;;;;40.17;3.60;;;;;;;24.35;49.72;99929.34;7313515;19;130229;-39
2022/07/13 03:59:22;;;;;;;35.83;3.77;;;;;;;24.34;49.41;99932.94;7309482;19;129169;-39
2022/07/13 04:01:47;;;;;;;51.90;5.00;;;;;;;24.35;49.30;99924.06;7308715;19;129508;-39
2022/07/13 04:04:13;;;;;;;21.38;2.35;;;;;;;24.35;49.53;99933.75;7312377;19;129449;-39
2022/07/13 04:06:38;;;;;;;23.88;3.05;;;;;;;24.28;49.18;99920.38;7310063;19;130193;-40
2022/07/13 04:09:04;;;;;;;26.88;2.85;;;;;;;24.35;49.95;99923.25;7311113;19;130752;-40
2022/07/13 04:11:29;;;;;;;45.17;4.67;;;;;;;24.35;49.46;99929.34;7310293;19;128996;-41
2022/07/13 04:13:55;;;;;;;58.50;5.15;;;;;;;24.34;49.43;99930.31;7309315;19;129170;-39
2022/07/13 04:16:20;;;;;;;30.73;2.93;;;;;;;24.33;48.98;99926.03;7312704;19;129614;-38
2022/07/13 04:18:45;;;;;;;38.47;3.83;;;;;;;24.31;50.09;99912.19;7313607;19;128981;-41
2022/07/13 04:21:13;;;;;;;33.87;3.13;;;;;;;24.30;48.94;99900.03;7311102;19;129400;-39
2022/07/13 04:23:39;;;;;;;28.35;3.22;;;;;;;24.31;49.93;99903.50;7310356;19;129329;-39
2022/07/13 04:26:05;;;;;;;28.83;3.00;;;;;;;24.33;49.62;99915.50;7310804;19;130551;-40
2022/07/13 04:28:30;;;;;;;31.15;3.33;;;;;;;24.32;50.05;99919.13;7311807;19;129007;-39
2022/07/13 04:30:55;;;;;;;36.95;3.75;;;;;;;24.33;49.94;99920.75;7310101;19;129096;-39
2022/07/13 04:33:21;;;;;;;13.13;2.00;;;;;;;24.32;50.45;99919.13;7309592;19;129622;-38
2022/07/13 04:35:46;;;;;;;31.85;3.10;;;;;;;24.34;49.58;99919.81;7311538;19;129220;-40
2022/07/13 04:38:12;;;;;;;26.50;2.90;;;;;;;24.33;50.46;99910.25;7311521;19;129355;-40
2022/07/13 04:40:38;;;;;;;21.17;2.70;;;;;;;24.37;50.33;99910.78;7311808;19;129534;-40
2022/07/13 04:43:04;;;;;;;32.13;3.40;;;;;;;24.34;50.52;99911.94;7305976;19;130326;-39
2022/07/13 04:45:29;;;;;;;23.00;2.50;;;;;;;24.35;50.28;99903.06;7310244;19;129188;-40
2022/07/13 04:47:54;;;;;;;32.90;3.20;;;;;;;24.28;50.80;99896.72;7311239;19;128997;-40
2022/07/13 04:50:20;;;;;;;34.38;3.25;;;;;;;24.34;50.44;99906.66;7310502;19;130896;-40
2022/07/13 04:52:45;;;;;;;37.83;3.50;;;;;;;24.36;50.17;99915.19;7308001;19;129132;-40
2022/07/13 04:55:11;;;;;;;29.93;3.00;;;;;;;24.35;50.56;99912.72;7311169;19;130229;-40
2022/07/13 04:57:36;;;;;;;55.42;4.63;;;;;;;24.37;50.41;99911.63;7309515;19;129654;-39
2022/07/13 05:00:04;;;;;;;49.03;4.88;;;;;;;24.30;50.42;99892.16;7309808;19;129264;-38
2022/07/13 05:02:29;;;;;;;31.35;3.10;;;;;;;24.26;50.28;99898.69;7306570;19;130714;-39
2022/07/13 05:04:55;;;;;;;43.42;3.80;;;;;;;24.32;49.75;99908.63;7308864;19;129974;-40
2022/07/13 05:07:20;;;;;;;22.65;2.67;;;;;;;24.36;50.83;99914.41;7309025;19;129050;-40
2022/07/13 05:09:46;;;;;;;49.85;4.22;;;;;;;24.37;50.15;99916.88;7309699;19;129609;-39
2022/07/13 05:12:12;;;;;;;56.85;4.97;;;;;;;24.28;50.46;99896.72;7305946;19;130114;-40
2022/07/13 05:14:37;;;;;;;35.50;3.30;;;;;;;24.37;50.47;99913.41;7307304;19;131303;-40
2022/07/13 05:17:02;;;;;;;28.45;3.08;;;;;;;24.35;50.72;99924.06;7309002;19;129365;-37
2022/07/13 05:19:28;;;;;;;29.47;3.67;;;;;;;24.37;50.56;99922.13;7309925;19;129152;-40
2022/07/13 05:21:53;;;;;;;45.83;4.22;;;;;;;24.35;50.22;99913.56;7301363;19;130474;-40
2022/07/13 05:24:19;;;;;;;23.87;2.50;;;;;;;24.38;50.64;99918.50;7311043;19;129656;-39
2022/07/13 05:26:44;;;;;;;38.97;3.70;;;;;;;24.38;50.46;99915.06;7305404;19;129214;-40
2022/07/13 05:29:09;;;;;;;24.03;2.57;;;;;;;24.37;50.87;99913.41;7309712;19;128960;-40
2022/07/13 05:31:35;;;;;;;27.55;2.75;;;;;;;24.37;50.07;99921.28;7306167;19;129992;-36
2022/07/13 05:34:01;;;;;;;27.67;3.37;;;;;;;24.37;50.44;99922.13;7308247;19;130369;-40
2022/07/13 05:36:26;;;;;;;39.17;3.33;;;;;;;24.38;51.06;99929.03;7309690;19;130447;-39
2022/07/13 05:38:52;;;;;;;30.73;2.87;;;;;;;24.38;50.99;99923.78;7310928;19;129106;-40
2022/07/13 05:41:17;;;;;;;28.67;3.10;;;;;;;24.32;50.62;99919.13;7305946;19;130759;-39
2022/07/13 05:43:42;;;;;;;25.80;2.70;;;;;;;24.37;50.70;99924.75;7308790;19;131185;-40
2022/07/13 05:46:08;;;;;;;38.15;3.50;;;;;;;24.30;50.73;99914.97;7306401;19;129901;-40
2022/07/13 05:48:37;;;;;;;25.30;2.67;;;;;;;24.40;51.90;99937.59;7307658;19;129270;-40
2022/07/13 05:51:02;;;;;;;50.75;4.40;;;;;;;24.31;50.28;99917.44;7307925;19;129574;-38
2022/07/13 05:53:27;;;;;;;24.58;2.55;;;;;;;24.38;51.17;99931.66;7309269;19;129406;-39
2022/07/13 05:55:53;;;;;;;53.60;4.50;;;;;;;24.39;50.77;99930.66;7311165;19;129578;-39
2022/07/13 05:58:18;;;;;;;23.30;2.35;;;;;;;24.39;50.49;99935.13;7316392;19;129861;-40
2022/07/13 06:00:44;;;;;;;33.25;3.03;;;;;;;24.40;51.01;99934.13;7315335;19;130194;-40
2022/07/13 06:03:09;;;;;;;38.28;3.85;;;;;;;24.38;51.30;99936.06;7306797;19;130746;-39
2022/07/13 06:05:34;;;;;;;29.47;2.93;;;;;;;24.33;50.28;99939.16;7315631;19;130288;-39
2022/07/13 06:08:00;;;;;;;34.80;3.20;;;;;;;24.31;51.21;99930.59;7316851;19;129243;-40
2022/07/13 06:10:26;;;;;;;23.73;2.37;;;;;;;24.35;50.61;99929.34;7315170;19;128994;-40
2022/07/13 06:12:51;;;;;;;44.37;3.97;;;;;;;24.40;50.22;99929.72;7309902;19;130199;-40
2022/07/13 06:15:17;;;;;;;25.20;2.57;;;;;;;24.37;50.41;99929.19;7316036;19;128996;-38
2022/07/13 06:17:42;;;;;;;32.22;3.00;;;;;;;24.32;50.83;99929.63;7315457;19;129289;-40
2022/07/13 06:20:08;;;;;;;53.00;4.60;;;;;;;24.31;51.43;99924.53;7307332;19;132315;-39
2022/07/13 06:22:33;;;;;;;30.50;3.17;;;;;;;24.18;51.37;99911.75;7307715;19;130669;-40
2022/07/13 06:24:59;;;;;;;25.13;2.70;;;;;;;24.28;51.82;99928.25;7315252;19;129947;-38
2022/07/13 06:27:24;;;;;;;33.00;3.25;;;;;;;24.29;51.54;99924.69;7312677;19;129060;-40
2022/07/13 06:29:50;;;;;;;45.90;3.97;;;;;;;24.29;50.80;99919.44;7312887;19;129270;-39
2022/07/13 06:32:15;;;;;;;27.60;2.63;;;;;;;24.30;51.05;99920.22;7313353;19;130369;-38
2022/07/13 06:34:40;;;;;;;116.68;10.20;;;;;;;24.31;50.84;99922.72;7301652;19;130201;-40
2022/07/13 06:37:07;;;;;;;23.70;2.35;;;;;;;24.23;51.00;99912.13;7314445;19;129232;-40
2022/07/13 06:39:33;;;;;;;31.25;3.25;;;;;;;24.30;51.14;99921.06;7316237;19;130527;-39
2022/07/13 06:41:58;;;;;;;32.17;3.60;;;;;;;24.31;51.56;99921.91;7309783;19;130020;-38
2022/07/13 06:44:24;;;;;;;39.40;3.28;;;;;;;24.17;50.96;99902.22;7315754;19;129766;-39
2022/07/13 06:46:49;;;;;;;29.25;2.78;;;;;;;24.27;51.13;99921.38;7313104;19;129151;-38
2022/07/13 06:49:15;;;;;;;34.67;3.10;;;;;;;24.22;50.88;99913.09;7315604;19;130133;-40
2022/07/13 06:51:40;;;;;;;56.47;4.97;;;;;;;24.20;51.00;99912.41;7311731;19;130991;-40
2022/07/13 06:54:06;;;;;;;99.72;8.57;;;;;;;24.23;51.65;99925.25;7312019;19;129403;-38
2022/07/13 06:56:31;;;;;;;35.47;3.83;;;;;;;24.27;50.80;99929.25;7314696;19;129576;-39
2022/07/13 06:58:57;;;;;;;24.63;2.93;;;;;;;24.18;51.67;99909.13;7315161;19;129245;-39
2022/07/13 07:01:22;;;;;;;29.10;3.35;;;;;;;24.27;50.94;99910.88;7313254;19;130386;-37
2022/07/13 07:03:47;;;;;;;33.80;3.78;;;;;;;24.25;51.54;99907.53;7314020;19;129671;-39
2022/07/13 07:06:13;;;;;;;33.33;3.47;;;;;;;24.22;51.22;99902.59;7313552;19;129270;-39
2022/07/13 07:08:38;;;;;;;49.40;4.15;;;;;;;24.25;51.33;99918.06;7314214;19;129443;-39
2022/07/13 07:11:04;;;;;;;38.93;4.23;;;;;;;24.23;52.07;99914.75;7312122;19;129880;-40
2022/07/13 07:13:29;;;;;;;31.07;3.07;;;;;;;24.24;50.62;99915.59;7313210;19;128993;-38
2022/07/13 07:15:54;;;;;;;26.92;2.92;;;;;;;24.23;51.35;99919.16;7312976;19;129357;-40
2022/07/13 07:18:24;;;;;;;19.53;2.13;;;;;;;24.15;51.72;99906.78;7313943;19;128907;-40
2022/07/13 07:20:50;;;;;;;30.75;3.00;;;;;;;24.22;51.32;99922.78;7314435;19;131331;-40
2022/07/13 07:23:16;;;;;;;13.50;1.75;;;;;;;24.21;51.85;99921.94;7311212;19;128974;-39
2022/07/13 07:25:41;;;;;;;42.10;4.20;;;;;;;24.22;50.72;99915.72;7314143;19;129587;-37
2022/07/13 07:28:07;;;;;;;23.13;2.87;;;;;;;24.21;51.02;99914.06;7314117;19;130171;-40
2022/07/13 07:30:33;;;;;;;26.73;3.03;;;;;;;24.23;50.04;99912.13;7313868;19;130115;-40
2022/07/13 07:32:58;;;;;;;60.58;4.78;;;;;;;24.04;52.62;99888.63;7304961;19;129762;-39
2022/07/13 07:35:24;;;;;;;31.27;3.27;;;;;;;24.17;51.03;99898.75;7310220;19;129335;-39
2022/07/13 07:37:49;;;;;;;28.85;2.92;;;;;;;24.16;51.33;99900.53;7314430;19;131255;-38
2022/07/13 07:40:14;;;;;;;30.75;3.42;;;;;;;24.18;51.48;99901.22;7312672;19;129315;-39
2022/07/13 07:42:40;;;;;;;31.92;3.13;;;;;;;24.17;51.23;99894.34;7311533;19;129210;-40
2022/07/13 07:45:08;;;;;;;89.27;6.97;;;;;;;24.23;51.43;99898.97;7308552;19;128869;-41
2022/07/13 07:47:33;;;;;;;69.00;5.68;;;;;;;24.21;52.45;99890.41;7305783;19;130236;-36
2022/07/13 07:49:59;;;;;;;42.47;4.35;;;;;;;24.19;51.57;99892.41;7309653;19;132377;-41
2022/07/13 07:52:24;;;;;;;19.55;2.25;;;;;;;24.18;51.96;99897.81;7312899;19;129535;-40
2022/07/13 07:54:49;;;;;;;88.70;7.73;;;;;;;24.22;52.44;99894.72;7302604;19;130699;-39
2022/07/13 07:57:15;;;;;;;49.47;4.32;;;;;;;24.21;51.50;99882.53;7308501;19;129856;-40
2022/07/13 07:59:41;;;;;;;33.17;3.00;;;;;;;24.20;51.74;99875.63;7301729;19;130816;-40
2022/07/13 08:02:08;;;;;;;31.73;3.07;;;;;;;24.19;51.84;99871.38;7307222;19;129113;-38
2022/07/13 08:04:33;;;;;;;;;;;;;;;24.31;52.75;99869.34;7313168;19;129414;-38
2022/07/13 08:06:59;;;;;;;15.38;2.00;;;;;;;24.24;52.18;99868.28;7310973;19;129334;-39
2022/07/13 08:09:25;;;;;;;40.97;3.90;;;;;;;24.19;51.63;99860.88;7312094;19;129461;-38
2022/07/13 08:11:50;;;;;;;34.93;3.27;;;;;;;24.18;51.63;99861.81;7310860;19;130178;-40
2022/07/13 08:14:16;;;;;;;26.00;2.57;;;;;;;24.21;51.90;99863.34;7312037;19;130235;-38
2022/07/13 08:16:41;;;;;;;11.65;1.85;;;;;;;24.19;52.30;99855.59;7312727;19;129447;-39
2022/07/13 08:19:06;;;;;;;26.77;2.85;;;;;;;24.19;52.19;99860.88;7309386;19;129622;-40
2022/07/13 08:21:32;;;;;;;39.20;3.67;;;;;;;24.20;51.18;99862.50;7311061;19;129874;-40
2022/07/13 08:23:57;;;;;;;36.78;3.60;;;;;;;24.10;51.44;99835.47;7311526;19;128894;-36
2022/07/13 08:26:28;;;;;;;24.60;2.33;;;;;;;24.19;52.95;99850.34;7309104;19;130070;-39
2022/07/13 08:28:55;;;;;;;51.92;4.43;;;;;;;24.09;51.82;99839.09;7310471;19;130318;-38
2022/07/13 08:31:21;;;;;;;;;;;;;;;24.27;53.56;99847.78;7309748;19;128840;-39
2022/07/13 08:39:15;;;;;;;22.73;2.42;;;;;;;24.15;52.03;99833.22;7312541;19;129268;-41
2022/07/13 08:41:41;;;;;;;33.53;3.00;;;;;;;24.15;51.79;99840.28;7308181;19;129255;-38
2022/07/13 08:44:06;;;;;;;31.98;2.92;;;;;;;24.17;51.60;99841.78;7310455;19;129375;-39
2022/07/13 08:46:32;;;;;;;26.10;2.53;;;;;;;24.18;51.99;99837.38;7310156;19;130232;-38
2022/07/13 08:48:58;;;;;;;24.50;2.97;;;;;;;24.09;52.07;99820.69;7306972;19;129521;-39
2022/07/13 08:51:24;;;;;;;41.97;3.97;;;;;;;24.17;51.77;99826.03;7309450;19;129033;-39
2022/07/13 08:53:51;;;;;;;97.55;7.13;;;;;;;24.17;51.94;99827.81;7307847;19;129708;-39
2022/07/13 08:56:17;;;;;;;24.65;2.30;;;;;;;24.17;51.30;99831.28;7307916;19;129098;-39
2022/07/13 08:58:43;;;;;;;29.90;2.95;;;;;;;24.15;51.62;99822.72;7312066;19;130480;-39
2022/07/13 09:01:09;;;;;;;38.30;3.10;;;;;;;24.14;51.51;99821.09;7309783;19;129428;-40
2022/07/13 09:03:35;;;;;;;34.00;3.30;;;;;;;24.13;51.44;99822.03;7312069;19;130086;-39
2022/07/13 09:06:01;;;;;;;37.92;3.28;;;;;;;24.14;51.91;99823.72;7309794;19;129086;-38
2022/07/13 09:08:26;;;;;;;9.20;1.43;;;;;;;24.07;51.53;99808.69;7311803;19;129691;-39
2022/07/13 09:10:59;;;;;;;27.40;2.85;;;;;;;24.17;52.21;99833.91;7309397;19;129029;-39
2022/07/13 09:13:36;;;;;;;9.88;1.58;;;;;;;24.23;53.39;99828.03;7311146;19;128985;-40
2022/07/13 09:16:21;;;;;;;58.50;4.60;;;;;;;24.24;52.88;99821.00;7311194;19;131096;-39
2022/07/13 09:19:00;;;;;;;15.60;2.63;;;;;;;24.21;52.97;99816.84;7310698;19;130014;-40
2022/07/13 09:21:27;;;;;;;30.60;3.38;;;;;;;24.17;51.44;99815.53;7310008;19;129655;-40
2022/07/13 09:23:58;;;;;;;25.60;2.65;;;;;;;24.17;52.56;99815.53;7312070;19;128958;-39
2022/07/13 09:26:39;;;;;;;31.65;2.88;;;;;;;24.17;53.15;99805.00;7310279;19;130991;-38
2022/07/13 09:29:05;;;;;;;23.20;2.33;;;;;;;24.19;51.23;99807.47;7311838;19;130409;-40
2022/07/13 09:31:31;;;;;;;25.42;2.40;;;;;;;24.18;51.56;99816.34;7313590;19;129231;-39
2022/07/13 09:33:56;;;;;;;32.33;3.07;;;;;;;24.20;51.41;99812.59;7317325;19;129231;-40
2022/07/13 09:36:22;;;;;;;40.27;3.33;;;;;;;24.19;51.47;99813.56;7318158;19;129177;-40
2022/07/13 09:38:51;;;;;;;25.40;2.53;;;;;;;24.15;52.30;99817.47;7318397;19;131018;-39
2022/07/13 09:41:21;;;;;;;34.67;3.20;;;;;;;24.12;51.25;99817.78;7316460;19;128941;-39
2022/07/13 09:46:58;;;;;;;38.65;3.35;;;;;;;24.18;52.88;99821.59;7316675;19;129261;-40
2022/07/13 09:49:39;;;;;;;25.42;2.88;;;;;;;24.17;52.71;99812.06;7318051;19;129618;-41
2022/07/13 09:52:06;;;;;;;32.08;2.88;;;;;;;24.13;51.24;99814.16;7313832;19;132635;-39
2022/07/13 09:54:33;;;;;;;26.13;2.50;;;;;;;24.14;50.69;99799.22;7316984;19;129599;-40
2022/07/13 09:57:01;;;;;;;22.45;2.13;;;;;;;24.15;51.17;99796.44;7316505;19;131012;-39
2022/07/13 09:59:30;;;;;;;25.20;2.45;;;;;;;24.14;51.41;99792.19;7316298;19;129743;-38
2022/07/13 10:01:56;;;;;;;28.92;2.78;;;;;;;24.14;50.85;99793.97;7314575;19;129199;-39
2022/07/13 10:04:23;;;;;;;22.20;1.92;;;;;;;24.13;51.15;99792.34;7317175;19;129174;-40
2022/07/13 10:06:51;;;;;;;29.23;2.45;;;;;;;24.11;52.16;99802.97;7315272;19;128926;-38
2022/07/13 10:09:23;;;;;;;47.15;3.90;;;;;;;24.13;50.93;99793.13;7316418;19;129211;-39
2022/07/13 10:11:48;;;;;;;30.88;2.88;;;;;;;24.13;51.56;99797.59;7314743;19;129596;-40
2022/07/13 10:14:17;;;;;;;20.10;1.67;;;;;;;24.13;50.31;99785.25;7316459;19;129915;-39
2022/07/13 10:16:44;;;;;;;29.15;2.45;;;;;;;24.14;50.18;99794.81;7315260;19;130485;-39
2022/07/13 10:19:10;;;;;;;19.00;1.80;;;;;;;24.13;50.53;99795.78;7316812;19;131268;-44
2022/07/13 10:21:57;;;;;;;25.85;2.42;;;;;;;24.11;51.44;99789.84;7314145;19;129039;-41
2022/07/13 10:24:22;;;;;;;27.02;2.30;;;;;;;24.12;50.86;99788.88;7315786;19;129376;-41
2022/07/13 10:26:48;;;;;;;25.35;2.33;;;;;;;24.09;50.61;99786.56;7314082;19;130783;-41
2022/07/13 10:29:17;;;;;;;19.53;1.73;;;;;;;24.01;50.96;99773.34;7315660;19;130299;-38
2022/07/13 10:31:43;;;;;;;30.30;2.60;;;;;;;24.06;50.77;99784.25;7314295;19;129721;-40
2022/07/13 10:34:12;;;;;;;21.10;1.90;;;;;;;24.05;51.58;99779.09;7317029;19;129353;-40
2022/07/13 10:36:56;;;;;;;35.03;3.13;;;;;;;24.02;52.63;99774.16;7316988;19;129172;-39
2022/07/13 10:39:26;;;;;;;24.80;2.28;;;;;;;23.99;51.98;99780.56;7315624;19;130943;-38
2022/07/13 10:42:05;;;;;;;26.52;2.30;;;;;;;23.95;51.83;99768.66;7312520;19;129020;-39
2022/07/13 10:44:41;;;;;;;33.92;2.67;;;;;;;23.92;52.10;99770.75;7314626;19;131164;-37
2022/07/13 10:47:15;;;;;;;20.65;1.80;;;;;;;23.88;50.11;99769.41;7314160;19;130135;-39
2022/07/13 10:49:50;;;;;;;185.65;14.65;;;;;;;23.85;51.14;99777.59;7309119;19;130561;-35
2022/07/13 10:52:21;;;;;;;57.05;4.25;;;;;;;23.83;51.68;99775.09;7307156;19;129168;-39
2022/07/13 10:55:07;;;;;;;33.80;2.75;;;;;;;23.82;52.47;99778.72;7315364;19;128921;-38
2022/07/13 10:57:34;;;;;;;47.30;3.65;;;;;;;23.79;51.33;99776.38;7309816;19;130307;-38
2022/07/13 11:00:17;;;;;;;41.63;3.67;;;;;;;23.69;52.16;99757.25;7314961;19;129283;-39
2022/07/13 11:02:48;;;;;;;28.65;2.30;;;;;;;23.69;50.34;99764.28;7312375;19;129274;-39
2022/07/13 11:05:30;;;;;;;26.25;2.28;;;;;;;23.71;52.42;99776.31;7316460;19;131101;-38
2022/07/13 11:07:56;;;;;;;27.65;2.22;;;;;;;23.67;50.64;99764.44;7313728;19;130254;-39
2022/07/13 11:10:28;;;;;;;21.48;1.83;;;;;;;23.62;51.61;99764.06;7315944;19;130691;-39
2022/07/13 11:13:12;;;;;;;36.08;3.15;;;;;;;23.63;51.88;99767.53;7311730;19;128956;-38
2022/07/13 11:15:55;;;;;;;29.13;2.30;;;;;;;23.61;52.14;99770.28;7316964;19;129270;-39
2022/07/13 11:18:31;;;;;;;32.42;2.92;;;;;;;23.59;52.70;99766.16;7314684;19;129276;-40
2022/07/13 11:20:59;;;;;;;26.38;2.10;;;;;;;23.56;51.15;99767.28;7314283;19;130397;-39
2022/07/13 11:26:34;;;;;;;20.80;1.80;;;;;;;23.49;52.11;99768.84;7315415;19;129035;-40